sensor_id;sensor_type;location;lat;lon;timestamp;temperature;humidity
58993;DHT22;44782;0.000;0.000;2022-11-20T00:01:42;16.20;64.30
58993;DHT22;44782;0.000;0.000;2022-11-20T00:03:58;16.20;64.40
58993;DHT22;44782;0.000;0.000;2022-11-20T00:06:16;16.20;64.30
58993;DHT22;44782;0.000;0.000;2022-11-20T00:08:32;16.20;64.30
58993;DHT22;44782;0.000;0.000;2022-11-20T00:10:48;16.20;64.30
58993;DHT22;44782;0.000;0.000;2022-11-20T00:13:04;16.20;64.30
58993;DHT22;44782;0.000;0.000;2022-11-20T00:15:20;16.20;64.40
58993;DHT22;44782;0.000;0.000;2022-11-20T00:17:35;16.20;64.40
58993;DHT22;44782;0.000;0.000;2022-11-20T00:19:51;16.20;64.40
58993;DHT22;44782;0.000;0.000;2022-11-20T00:22:06;16.10;64.40
58993;DHT22;44782;0.000;0.000;2022-11-20T00:24:22;16.10;64.40
58993;DHT22;44782;0.000;0.000;2022-11-20T00:26:38;16.10;64.40
58993;DHT22;44782;0.000;0.000;2022-11-20T00:28:58;16.10;64.40
58993;DHT22;44782;0.000;0.000;2022-11-20T00:31:15;16.10;64.50
58993;DHT22;44782;0.000;0.000;2022-11-20T00:33:30;16.10;64.40
58993;DHT22;44782;0.000;0.000;2022-11-20T00:35:46;16.10;64.50
58993;DHT22;44782;0.000;0.000;2022-11-20T00:38:02;16.10;64.40
58993;DHT22;44782;0.000;0.000;2022-11-20T00:40:17;16.10;64.50
58993;DHT22;44782;0.000;0.000;2022-11-20T00:42:33;16.00;64.40
58993;DHT22;44782;0.000;0.000;2022-11-20T00:44:49;16.00;64.40
58993;DHT22;44782;0.000;0.000;2022-11-20T00:47:04;16.00;64.40
58993;DHT22;44782;0.000;0.000;2022-11-20T00:49:20;16.00;64.50
58993;DHT22;44782;0.000;0.000;2022-11-20T00:51:35;16.00;64.40
58993;DHT22;44782;0.000;0.000;2022-11-20T00:53:51;16.00;64.50
58993;DHT22;44782;0.000;0.000;2022-11-20T00:56:10;16.00;64.50
58993;DHT22;44782;0.000;0.000;2022-11-20T00:58:46;16.00;64.50
58993;DHT22;44782;0.000;0.000;2022-11-20T01:01:23;16.00;64.30
58993;DHT22;44782;0.000;0.000;2022-11-20T01:03:49;15.90;64.50
58993;DHT22;44782;0.000;0.000;2022-11-20T01:06:11;15.90;64.50
58993;DHT22;44782;0.000;0.000;2022-11-20T01:08:31;15.90;64.50
58993;DHT22;44782;0.000;0.000;2022-11-20T01:10:47;15.90;64.60
58993;DHT22;44782;0.000;0.000;2022-11-20T01:13:03;15.90;64.70
58993;DHT22;44782;0.000;0.000;2022-11-20T01:15:37;15.90;64.60
58993;DHT22;44782;0.000;0.000;2022-11-20T01:17:53;15.90;64.60
58993;DHT22;44782;0.000;0.000;2022-11-20T01:20:09;15.90;64.60
58993;DHT22;44782;0.000;0.000;2022-11-20T01:22:25;15.90;64.60
58993;DHT22;44782;0.000;0.000;2022-11-20T01:24:40;15.90;64.60
58993;DHT22;44782;0.000;0.000;2022-11-20T01:26:56;15.90;64.60
58993;DHT22;44782;0.000;0.000;2022-11-20T01:29:21;15.90;64.60
58993;DHT22;44782;0.000;0.000;2022-11-20T01:31:37;15.90;64.60
58993;DHT22;44782;0.000;0.000;2022-11-20T01:33:56;15.80;64.60
58993;DHT22;44782;0.000;0.000;2022-11-20T01:36:13;15.80;64.60
58993;DHT22;44782;0.000;0.000;2022-11-20T01:38:29;15.80;64.60
58993;DHT22;44782;0.000;0.000;2022-11-20T01:40:44;15.80;64.60
58993;DHT22;44782;0.000;0.000;2022-11-20T01:43:13;15.80;64.70
58993;DHT22;44782;0.000;0.000;2022-11-20T01:48:14;15.80;64.40
58993;DHT22;44782;0.000;0.000;2022-11-20T01:50:30;15.80;64.70
58993;DHT22;44782;0.000;0.000;2022-11-20T01:52:54;15.80;64.70
58993;DHT22;44782;0.000;0.000;2022-11-20T01:55:21;15.80;64.60
58993;DHT22;44782;0.000;0.000;2022-11-20T01:57:38;15.80;64.60
58993;DHT22;44782;0.000;0.000;2022-11-20T01:59:59;15.80;64.70
58993;DHT22;44782;0.000;0.000;2022-11-20T02:02:15;15.70;64.70
58993;DHT22;44782;0.000;0.000;2022-11-20T02:04:31;15.70;64.70
58993;DHT22;44782;0.000;0.000;2022-11-20T02:06:54;15.70;64.70
58993;DHT22;44782;0.000;0.000;2022-11-20T02:09:10;15.70;65.50
58993;DHT22;44782;0.000;0.000;2022-11-20T02:11:26;15.80;64.80
58993;DHT22;44782;0.000;0.000;2022-11-20T02:13:42;15.70;64.80
58993;DHT22;44782;0.000;0.000;2022-11-20T02:15:58;15.70;64.80
58993;DHT22;44782;0.000;0.000;2022-11-20T02:18:16;15.70;64.80
58993;DHT22;44782;0.000;0.000;2022-11-20T02:20:32;15.70;64.80
58993;DHT22;44782;0.000;0.000;2022-11-20T02:23:10;15.70;64.80
58993;DHT22;44782;0.000;0.000;2022-11-20T02:25:27;15.70;64.80
58993;DHT22;44782;0.000;0.000;2022-11-20T02:27:44;15.70;64.80
58993;DHT22;44782;0.000;0.000;2022-11-20T02:30:03;15.70;64.90
58993;DHT22;44782;0.000;0.000;2022-11-20T02:32:28;15.70;65.00
58993;DHT22;44782;0.000;0.000;2022-11-20T02:34:44;15.70;64.90
58993;DHT22;44782;0.000;0.000;2022-11-20T02:36:59;15.70;65.00
58993;DHT22;44782;0.000;0.000;2022-11-20T02:39:15;15.70;64.90
58993;DHT22;44782;0.000;0.000;2022-11-20T02:41:36;15.60;64.80
58993;DHT22;44782;0.000;0.000;2022-11-20T02:43:52;15.70;65.20
58993;DHT22;44782;0.000;0.000;2022-11-20T02:46:08;15.60;64.80
58993;DHT22;44782;0.000;0.000;2022-11-20T02:48:23;15.60;64.80
58993;DHT22;44782;0.000;0.000;2022-11-20T02:50:39;15.70;64.80
58993;DHT22;44782;0.000;0.000;2022-11-20T02:52:55;15.60;64.80
58993;DHT22;44782;0.000;0.000;2022-11-20T02:55:11;15.60;64.80
58993;DHT22;44782;0.000;0.000;2022-11-20T02:57:26;15.60;64.70
58993;DHT22;44782;0.000;0.000;2022-11-20T02:59:43;15.60;64.70
58993;DHT22;44782;0.000;0.000;2022-11-20T03:01:58;15.60;64.70
58993;DHT22;44782;0.000;0.000;2022-11-20T03:04:14;15.60;64.80
58993;DHT22;44782;0.000;0.000;2022-11-20T03:06:30;15.60;64.70
58993;DHT22;44782;0.000;0.000;2022-11-20T03:08:45;15.60;64.70
58993;DHT22;44782;0.000;0.000;2022-11-20T03:11:05;15.60;64.70
58993;DHT22;44782;0.000;0.000;2022-11-20T03:13:21;15.60;64.60
58993;DHT22;44782;0.000;0.000;2022-11-20T03:15:37;15.50;64.60
58993;DHT22;44782;0.000;0.000;2022-11-20T03:17:54;15.60;65.40
58993;DHT22;44782;0.000;0.000;2022-11-20T03:20:11;15.60;64.60
58993;DHT22;44782;0.000;0.000;2022-11-20T03:22:29;15.60;64.70
58993;DHT22;44782;0.000;0.000;2022-11-20T03:24:45;15.60;64.70
58993;DHT22;44782;0.000;0.000;2022-11-20T03:27:01;15.50;64.60
58993;DHT22;44782;0.000;0.000;2022-11-20T03:29:16;15.50;64.60
58993;DHT22;44782;0.000;0.000;2022-11-20T03:31:39;15.50;64.60
58993;DHT22;44782;0.000;0.000;2022-11-20T03:33:56;15.50;64.50
58993;DHT22;44782;0.000;0.000;2022-11-20T03:36:14;15.50;64.60
58993;DHT22;44782;0.000;0.000;2022-11-20T03:38:30;15.50;64.60
58993;DHT22;44782;0.000;0.000;2022-11-20T03:40:46;15.50;64.60
58993;DHT22;44782;0.000;0.000;2022-11-20T03:43:02;15.50;64.50
58993;DHT22;44782;0.000;0.000;2022-11-20T03:45:18;15.50;64.50
58993;DHT22;44782;0.000;0.000;2022-11-20T03:47:34;15.50;64.50
58993;DHT22;44782;0.000;0.000;2022-11-20T03:49:49;15.60;64.60
58993;DHT22;44782;0.000;0.000;2022-11-20T03:52:05;15.60;64.60
58993;DHT22;44782;0.000;0.000;2022-11-20T03:54:21;15.50;65.00
58993;DHT22;44782;0.000;0.000;2022-11-20T03:56:38;15.50;64.40
58993;DHT22;44782;0.000;0.000;2022-11-20T03:58:54;15.60;64.40
58993;DHT22;44782;0.000;0.000;2022-11-20T04:01:14;15.60;64.40
58993;DHT22;44782;0.000;0.000;2022-11-20T04:03:29;15.60;64.30
58993;DHT22;44782;0.000;0.000;2022-11-20T04:05:45;15.60;64.30
58993;DHT22;44782;0.000;0.000;2022-11-20T04:08:01;15.70;64.30
58993;DHT22;44782;0.000;0.000;2022-11-20T04:10:16;15.60;64.20
58993;DHT22;44782;0.000;0.000;2022-11-20T04:12:32;15.70;64.20
58993;DHT22;44782;0.000;0.000;2022-11-20T04:14:48;15.70;64.20
58993;DHT22;44782;0.000;0.000;2022-11-20T04:17:04;15.70;64.10
58993;DHT22;44782;0.000;0.000;2022-11-20T04:19:20;15.70;64.10
58993;DHT22;44782;0.000;0.000;2022-11-20T04:21:35;15.70;64.10
58993;DHT22;44782;0.000;0.000;2022-11-20T04:23:52;15.80;64.00
58993;DHT22;44782;0.000;0.000;2022-11-20T04:26:11;15.80;63.90
58993;DHT22;44782;0.000;0.000;2022-11-20T04:28:27;15.80;63.90
58993;DHT22;44782;0.000;0.000;2022-11-20T04:30:43;15.80;63.80
58993;DHT22;44782;0.000;0.000;2022-11-20T04:32:58;15.80;63.80
58993;DHT22;44782;0.000;0.000;2022-11-20T04:35:14;15.80;63.80
58993;DHT22;44782;0.000;0.000;2022-11-20T04:37:30;15.80;63.80
58993;DHT22;44782;0.000;0.000;2022-11-20T04:39:45;15.80;63.70
58993;DHT22;44782;0.000;0.000;2022-11-20T04:42:01;15.80;63.60
58993;DHT22;44782;0.000;0.000;2022-11-20T04:44:35;15.80;63.60
58993;DHT22;44782;0.000;0.000;2022-11-20T04:46:51;15.80;63.60
58993;DHT22;44782;0.000;0.000;2022-11-20T04:49:07;15.80;63.60
58993;DHT22;44782;0.000;0.000;2022-11-20T04:51:23;15.80;63.40
58993;DHT22;44782;0.000;0.000;2022-11-20T04:53:39;15.80;63.40
58993;DHT22;44782;0.000;0.000;2022-11-20T04:56:03;15.80;63.40
58993;DHT22;44782;0.000;0.000;2022-11-20T04:58:19;15.80;63.30
58993;DHT22;44782;0.000;0.000;2022-11-20T05:00:34;15.80;63.40
58993;DHT22;44782;0.000;0.000;2022-11-20T05:02:50;15.80;63.30
58993;DHT22;44782;0.000;0.000;2022-11-20T05:05:06;15.80;63.30
58993;DHT22;44782;0.000;0.000;2022-11-20T05:07:21;15.80;63.30
58993;DHT22;44782;0.000;0.000;2022-11-20T05:09:37;15.80;63.20
58993;DHT22;44782;0.000;0.000;2022-11-20T05:11:52;15.80;63.20
58993;DHT22;44782;0.000;0.000;2022-11-20T05:14:08;15.80;63.20
58993;DHT22;44782;0.000;0.000;2022-11-20T05:16:24;15.80;63.20
58993;DHT22;44782;0.000;0.000;2022-11-20T05:18:41;15.80;63.10
58993;DHT22;44782;0.000;0.000;2022-11-20T05:20:57;15.80;63.10
58993;DHT22;44782;0.000;0.000;2022-11-20T05:23:13;15.90;63.10
58993;DHT22;44782;0.000;0.000;2022-11-20T05:25:28;15.90;63.00
58993;DHT22;44782;0.000;0.000;2022-11-20T05:27:44;15.90;63.00
58993;DHT22;44782;0.000;0.000;2022-11-20T05:29:59;15.90;62.90
58993;DHT22;44782;0.000;0.000;2022-11-20T05:32:15;15.90;62.90
58993;DHT22;44782;0.000;0.000;2022-11-20T05:34:31;15.90;62.90
58993;DHT22;44782;0.000;0.000;2022-11-20T05:36:46;15.90;62.80
58993;DHT22;44782;0.000;0.000;2022-11-20T05:39:02;16.00;62.80
58993;DHT22;44782;0.000;0.000;2022-11-20T05:41:19;15.90;62.70
58993;DHT22;44782;0.000;0.000;2022-11-20T05:43:36;16.00;62.70
58993;DHT22;44782;0.000;0.000;2022-11-20T05:45:55;16.00;62.70
58993;DHT22;44782;0.000;0.000;2022-11-20T05:48:11;16.00;62.60
58993;DHT22;44782;0.000;0.000;2022-11-20T05:50:27;16.00;62.60
58993;DHT22;44782;0.000;0.000;2022-11-20T05:52:43;16.00;62.50
58993;DHT22;44782;0.000;0.000;2022-11-20T05:54:59;16.00;62.50
58993;DHT22;44782;0.000;0.000;2022-11-20T05:57:15;16.00;62.50
58993;DHT22;44782;0.000;0.000;2022-11-20T05:59:30;16.00;62.50
58993;DHT22;44782;0.000;0.000;2022-11-20T06:01:46;16.00;62.50
58993;DHT22;44782;0.000;0.000;2022-11-20T06:04:01;16.00;62.40
58993;DHT22;44782;0.000;0.000;2022-11-20T06:06:18;16.00;62.40
58993;DHT22;44782;0.000;0.000;2022-11-20T06:08:34;16.00;62.30
58993;DHT22;44782;0.000;0.000;2022-11-20T06:10:50;16.00;62.30
58993;DHT22;44782;0.000;0.000;2022-11-20T06:13:05;16.00;62.30
58993;DHT22;44782;0.000;0.000;2022-11-20T06:15:21;16.00;62.30
58993;DHT22;44782;0.000;0.000;2022-11-20T06:17:36;16.00;62.30
58993;DHT22;44782;0.000;0.000;2022-11-20T06:19:52;16.00;62.20
58993;DHT22;44782;0.000;0.000;2022-11-20T06:22:08;16.00;62.20
58993;DHT22;44782;0.000;0.000;2022-11-20T06:24:23;16.00;62.20
58993;DHT22;44782;0.000;0.000;2022-11-20T06:26:40;16.00;62.20
58993;DHT22;44782;0.000;0.000;2022-11-20T06:28:56;16.00;62.20
58993;DHT22;44782;0.000;0.000;2022-11-20T06:31:15;16.00;62.20
58993;DHT22;44782;0.000;0.000;2022-11-20T06:33:31;15.90;62.00
58993;DHT22;44782;0.000;0.000;2022-11-20T06:35:47;15.90;62.00
58993;DHT22;44782;0.000;0.000;2022-11-20T06:38:03;15.90;62.00
58993;DHT22;44782;0.000;0.000;2022-11-20T06:40:18;15.90;62.00
58993;DHT22;44782;0.000;0.000;2022-11-20T06:42:34;15.90;62.00
58993;DHT22;44782;0.000;0.000;2022-11-20T06:44:49;15.90;62.10
58993;DHT22;44782;0.000;0.000;2022-11-20T06:47:05;15.90;62.00
58993;DHT22;44782;0.000;0.000;2022-11-20T06:49:20;15.90;62.00
58993;DHT22;44782;0.000;0.000;2022-11-20T06:51:36;15.90;62.70
58993;DHT22;44782;0.000;0.000;2022-11-20T06:53:52;15.90;62.00
58993;DHT22;44782;0.000;0.000;2022-11-20T06:56:08;15.90;62.00
58993;DHT22;44782;0.000;0.000;2022-11-20T06:58:26;15.90;61.90
58993;DHT22;44782;0.000;0.000;2022-11-20T07:00:43;15.90;61.90
58993;DHT22;44782;0.000;0.000;2022-11-20T07:03:03;15.90;61.90
58993;DHT22;44782;0.000;0.000;2022-11-20T07:05:19;15.90;61.80
58993;DHT22;44782;0.000;0.000;2022-11-20T07:07:34;15.90;61.90
58993;DHT22;44782;0.000;0.000;2022-11-20T07:09:50;15.90;61.80
58993;DHT22;44782;0.000;0.000;2022-11-20T07:12:06;15.90;61.80
58993;DHT22;44782;0.000;0.000;2022-11-20T07:14:21;15.90;61.80
58993;DHT22;44782;0.000;0.000;2022-11-20T07:16:37;16.00;61.80
58993;DHT22;44782;0.000;0.000;2022-11-20T07:18:52;16.00;61.80
58993;DHT22;44782;0.000;0.000;2022-11-20T07:21:09;16.00;61.80
58993;DHT22;44782;0.000;0.000;2022-11-20T07:23:25;16.00;61.70
58993;DHT22;44782;0.000;0.000;2022-11-20T07:25:41;16.00;61.70
58993;DHT22;44782;0.000;0.000;2022-11-20T07:27:57;16.00;61.60
58993;DHT22;44782;0.000;0.000;2022-11-20T07:30:15;16.00;61.50
58993;DHT22;44782;0.000;0.000;2022-11-20T07:32:30;16.10;61.60
58993;DHT22;44782;0.000;0.000;2022-11-20T07:34:46;16.10;61.50
58993;DHT22;44782;0.000;0.000;2022-11-20T07:37:02;16.10;61.50
58993;DHT22;44782;0.000;0.000;2022-11-20T07:39:17;16.10;61.40
58993;DHT22;44782;0.000;0.000;2022-11-20T07:41:33;16.10;61.40
58993;DHT22;44782;0.000;0.000;2022-11-20T07:43:48;16.10;61.40
58993;DHT22;44782;0.000;0.000;2022-11-20T07:46:04;16.10;61.40
58993;DHT22;44782;0.000;0.000;2022-11-20T07:48:20;16.10;61.30
58993;DHT22;44782;0.000;0.000;2022-11-20T07:50:35;16.20;61.30
58993;DHT22;44782;0.000;0.000;2022-11-20T07:52:51;16.10;61.30
58993;DHT22;44782;0.000;0.000;2022-11-20T07:55:09;16.20;61.30
58993;DHT22;44782;0.000;0.000;2022-11-20T07:57:24;16.20;61.30
58993;DHT22;44782;0.000;0.000;2022-11-20T07:59:40;16.20;61.30
58993;DHT22;44782;0.000;0.000;2022-11-20T08:01:55;16.20;61.20
58993;DHT22;44782;0.000;0.000;2022-11-20T08:04:11;16.20;61.20
58993;DHT22;44782;0.000;0.000;2022-11-20T08:06:27;16.20;61.10
58993;DHT22;44782;0.000;0.000;2022-11-20T08:08:42;16.20;61.10
58993;DHT22;44782;0.000;0.000;2022-11-20T08:10:58;16.20;61.60
58993;DHT22;44782;0.000;0.000;2022-11-20T08:13:32;16.20;61.00
58993;DHT22;44782;0.000;0.000;2022-11-20T08:16:07;16.20;61.00
58993;DHT22;44782;0.000;0.000;2022-11-20T08:18:22;16.20;61.00
58993;DHT22;44782;0.000;0.000;2022-11-20T08:20:38;16.20;61.70
58993;DHT22;44782;0.000;0.000;2022-11-20T08:23:01;16.20;60.90
58993;DHT22;44782;0.000;0.000;2022-11-20T08:25:17;16.30;60.80
58993;DHT22;44782;0.000;0.000;2022-11-20T08:27:32;16.20;60.80
58993;DHT22;44782;0.000;0.000;2022-11-20T08:29:48;16.30;60.90
58993;DHT22;44782;0.000;0.000;2022-11-20T08:32:04;16.30;60.90
58993;DHT22;44782;0.000;0.000;2022-11-20T08:34:19;16.30;61.60
58993;DHT22;44782;0.000;0.000;2022-11-20T08:36:37;16.30;60.80
58993;DHT22;44782;0.000;0.000;2022-11-20T08:38:54;16.30;60.60
58993;DHT22;44782;0.000;0.000;2022-11-20T08:41:10;16.30;60.70
58993;DHT22;44782;0.000;0.000;2022-11-20T08:43:42;16.30;60.70
58993;DHT22;44782;0.000;0.000;2022-11-20T08:45:57;16.30;60.70
58993;DHT22;44782;0.000;0.000;2022-11-20T08:48:13;16.30;60.60
58993;DHT22;44782;0.000;0.000;2022-11-20T08:50:29;16.30;60.60
58993;DHT22;44782;0.000;0.000;2022-11-20T08:52:47;16.30;60.60
58993;DHT22;44782;0.000;0.000;2022-11-20T08:55:03;16.30;60.60
58993;DHT22;44782;0.000;0.000;2022-11-20T08:57:19;16.30;60.60
58993;DHT22;44782;0.000;0.000;2022-11-20T08:59:35;16.30;60.50
58993;DHT22;44782;0.000;0.000;2022-11-20T09:01:50;16.30;60.50
58993;DHT22;44782;0.000;0.000;2022-11-20T09:04:06;16.30;60.50
58993;DHT22;44782;0.000;0.000;2022-11-20T09:06:22;16.30;60.50
58993;DHT22;44782;0.000;0.000;2022-11-20T09:08:37;16.30;60.50
58993;DHT22;44782;0.000;0.000;2022-11-20T09:10:54;16.30;60.40
58993;DHT22;44782;0.000;0.000;2022-11-20T09:13:10;16.40;60.50
58993;DHT22;44782;0.000;0.000;2022-11-20T09:15:26;16.40;60.50
58993;DHT22;44782;0.000;0.000;2022-11-20T09:17:41;16.40;60.50
58993;DHT22;44782;0.000;0.000;2022-11-20T09:19:57;16.40;60.50
58993;DHT22;44782;0.000;0.000;2022-11-20T09:22:13;16.40;60.40
58993;DHT22;44782;0.000;0.000;2022-11-20T09:24:28;16.40;60.40
58993;DHT22;44782;0.000;0.000;2022-11-20T09:26:44;16.40;60.40
58993;DHT22;44782;0.000;0.000;2022-11-20T09:29:00;16.40;60.40
58993;DHT22;44782;0.000;0.000;2022-11-20T09:31:22;16.40;60.40
58993;DHT22;44782;0.000;0.000;2022-11-20T09:33:38;16.40;60.30
58993;DHT22;44782;0.000;0.000;2022-11-20T09:35:53;16.40;60.40
58993;DHT22;44782;0.000;0.000;2022-11-20T09:38:10;16.40;60.30
58993;DHT22;44782;0.000;0.000;2022-11-20T09:40:28;16.40;60.30
58993;DHT22;44782;0.000;0.000;2022-11-20T09:43:49;16.40;60.30
58993;DHT22;44782;0.000;0.000;2022-11-20T09:50:51;16.50;60.30
58993;DHT22;44782;0.000;0.000;2022-11-20T09:55:54;16.50;60.10
58993;DHT22;44782;0.000;0.000;2022-11-20T09:58:40;16.40;60.30
58993;DHT22;44782;0.000;0.000;2022-11-20T10:01:18;16.50;60.10
58993;DHT22;44782;0.000;0.000;2022-11-20T10:06:07;16.50;60.30
58993;DHT22;44782;0.000;0.000;2022-11-20T10:08:40;16.50;60.30
58993;DHT22;44782;0.000;0.000;2022-11-20T10:11:21;16.50;60.20
58993;DHT22;44782;0.000;0.000;2022-11-20T10:14:09;16.50;60.10
58993;DHT22;44782;0.000;0.000;2022-11-20T10:24:34;16.50;60.10
58993;DHT22;44782;0.000;0.000;2022-11-20T10:29:36;16.50;60.10
58993;DHT22;44782;0.000;0.000;2022-11-20T10:31:59;16.50;60.00
58993;DHT22;44782;0.000;0.000;2022-11-20T10:34:30;16.50;60.20
58993;DHT22;44782;0.000;0.000;2022-11-20T10:36:52;16.50;60.00
58993;DHT22;44782;0.000;0.000;2022-11-20T10:48:25;16.50;59.80
58993;DHT22;44782;0.000;0.000;2022-11-20T10:50:53;16.50;60.90
58993;DHT22;44782;0.000;0.000;2022-11-20T10:55:50;16.50;60.10
58993;DHT22;44782;0.000;0.000;2022-11-20T11:00:43;16.50;60.50
58993;DHT22;44782;0.000;0.000;2022-11-20T11:02:58;16.60;60.80
58993;DHT22;44782;0.000;0.000;2022-11-20T11:05:44;16.60;61.00
58993;DHT22;44782;0.000;0.000;2022-11-20T11:10:55;16.70;61.60
58993;DHT22;44782;0.000;0.000;2022-11-20T11:13:31;16.70;61.90
58993;DHT22;44782;0.000;0.000;2022-11-20T11:15:47;16.80;62.00
58993;DHT22;44782;0.000;0.000;2022-11-20T11:18:03;16.70;61.80
58993;DHT22;44782;0.000;0.000;2022-11-20T11:20:21;16.80;61.90
58993;DHT22;44782;0.000;0.000;2022-11-20T11:22:57;16.80;61.90
58993;DHT22;44782;0.000;0.000;2022-11-20T11:25:30;16.90;62.00
58993;DHT22;44782;0.000;0.000;2022-11-20T11:27:49;16.90;62.00
58993;DHT22;44782;0.000;0.000;2022-11-20T11:30:14;16.90;61.90
58993;DHT22;44782;0.000;0.000;2022-11-20T11:32:31;17.00;62.00
58993;DHT22;44782;0.000;0.000;2022-11-20T11:35:03;17.00;62.00
58993;DHT22;44782;0.000;0.000;2022-11-20T11:37:21;17.10;62.00
58993;DHT22;44782;0.000;0.000;2022-11-20T11:39:39;17.10;61.80
58993;DHT22;44782;0.000;0.000;2022-11-20T11:41:58;17.20;61.80
58993;DHT22;44782;0.000;0.000;2022-11-20T11:44:19;17.20;61.70
58993;DHT22;44782;0.000;0.000;2022-11-20T11:46:55;17.20;61.70
58993;DHT22;44782;0.000;0.000;2022-11-20T11:49:18;17.30;61.60
58993;DHT22;44782;0.000;0.000;2022-11-20T11:54:54;17.30;61.20
58993;DHT22;44782;0.000;0.000;2022-11-20T12:02:00;17.40;61.20
58993;DHT22;44782;0.000;0.000;2022-11-20T12:06:47;17.50;61.00
58993;DHT22;44782;0.000;0.000;2022-11-20T12:09:10;17.50;61.10
58993;DHT22;44782;0.000;0.000;2022-11-20T12:11:45;17.50;61.00
58993;DHT22;44782;0.000;0.000;2022-11-20T12:14:13;17.60;60.70
58993;DHT22;44782;0.000;0.000;2022-11-20T12:16:34;17.60;60.70
58993;DHT22;44782;0.000;0.000;2022-11-20T12:18:52;17.70;60.80
58993;DHT22;44782;0.000;0.000;2022-11-20T12:21:31;17.70;61.10
58993;DHT22;44782;0.000;0.000;2022-11-20T12:23:53;17.80;61.30
58993;DHT22;44782;0.000;0.000;2022-11-20T12:37:29;18.00;62.00
58993;DHT22;44782;0.000;0.000;2022-11-20T12:39:49;18.10;62.00
58993;DHT22;44782;0.000;0.000;2022-11-20T12:53:25;18.40;61.90
58993;DHT22;44782;0.000;0.000;2022-11-20T12:55:53;18.50;61.80
58993;DHT22;44782;0.000;0.000;2022-11-20T13:00:33;18.60;61.90
58993;DHT22;44782;0.000;0.000;2022-11-20T13:05:32;18.70;62.00
58993;DHT22;44782;0.000;0.000;2022-11-20T13:07:52;18.80;61.90
58993;DHT22;44782;0.000;0.000;2022-11-20T13:12:47;18.90;61.40
58993;DHT22;44782;0.000;0.000;2022-11-20T13:15:31;18.90;61.40
58993;DHT22;44782;0.000;0.000;2022-11-20T13:17:59;19.00;61.30
58993;DHT22;44782;0.000;0.000;2022-11-20T13:20:17;19.00;61.30
58993;DHT22;44782;0.000;0.000;2022-11-20T13:25:00;19.10;60.80
58993;DHT22;44782;0.000;0.000;2022-11-20T13:29:33;19.10;60.50
58993;DHT22;44782;0.000;0.000;2022-11-20T13:31:49;19.20;60.40
58993;DHT22;44782;0.000;0.000;2022-11-20T13:34:06;19.20;60.30
58993;DHT22;44782;0.000;0.000;2022-11-20T13:36:24;19.20;60.10
58993;DHT22;44782;0.000;0.000;2022-11-20T13:38:47;19.30;60.00
58993;DHT22;44782;0.000;0.000;2022-11-20T13:41:03;19.30;59.80
58993;DHT22;44782;0.000;0.000;2022-11-20T13:43:41;19.30;59.80
58993;DHT22;44782;0.000;0.000;2022-11-20T13:46:02;19.30;59.70
58993;DHT22;44782;0.000;0.000;2022-11-20T13:48:23;19.30;59.50
58993;DHT22;44782;0.000;0.000;2022-11-20T13:50:51;19.30;59.40
58993;DHT22;44782;0.000;0.000;2022-11-20T14:01:26;19.40;59.30
58993;DHT22;44782;0.000;0.000;2022-11-20T14:03:44;19.40;59.00
58993;DHT22;44782;0.000;0.000;2022-11-20T14:06:03;19.40;59.30
58993;DHT22;44782;0.000;0.000;2022-11-20T14:08:37;19.40;59.20
58993;DHT22;44782;0.000;0.000;2022-11-20T14:13:31;19.40;58.90
58993;DHT22;44782;0.000;0.000;2022-11-20T14:15:47;19.40;59.20
58993;DHT22;44782;0.000;0.000;2022-11-20T14:18:18;19.40;59.00
58993;DHT22;44782;0.000;0.000;2022-11-20T14:20:34;19.50;59.00
58993;DHT22;44782;0.000;0.000;2022-11-20T14:22:55;19.50;59.20
58993;DHT22;44782;0.000;0.000;2022-11-20T14:27:40;19.50;58.90
58993;DHT22;44782;0.000;0.000;2022-11-20T14:29:56;19.50;59.60
58993;DHT22;44782;0.000;0.000;2022-11-20T14:32:15;19.50;59.00
58993;DHT22;44782;0.000;0.000;2022-11-20T14:34:33;19.50;58.90
58993;DHT22;44782;0.000;0.000;2022-11-20T14:36:56;19.60;58.90
58993;DHT22;44782;0.000;0.000;2022-11-20T14:39:20;19.50;58.80
58993;DHT22;44782;0.000;0.000;2022-11-20T14:41:36;19.60;59.40
58993;DHT22;44782;0.000;0.000;2022-11-20T14:43:59;19.60;58.80
58993;DHT22;44782;0.000;0.000;2022-11-20T14:46:15;19.60;58.60
58993;DHT22;44782;0.000;0.000;2022-11-20T14:48:37;19.60;58.70
58993;DHT22;44782;0.000;0.000;2022-11-20T14:50:53;19.60;58.60
58993;DHT22;44782;0.000;0.000;2022-11-20T14:53:08;19.60;58.60
58993;DHT22;44782;0.000;0.000;2022-11-20T14:57:54;19.60;58.50
58993;DHT22;44782;0.000;0.000;2022-11-20T15:02:30;19.60;58.50
58993;DHT22;44782;0.000;0.000;2022-11-20T15:04:47;19.60;58.50
58993;DHT22;44782;0.000;0.000;2022-11-20T15:07:03;19.60;58.60
58993;DHT22;44782;0.000;0.000;2022-11-20T15:09:18;19.60;58.50
58993;DHT22;44782;0.000;0.000;2022-11-20T15:11:35;19.60;58.50
58993;DHT22;44782;0.000;0.000;2022-11-20T15:13:51;19.70;58.50
58993;DHT22;44782;0.000;0.000;2022-11-20T15:16:18;19.70;58.40
58993;DHT22;44782;0.000;0.000;2022-11-20T15:18:39;19.70;58.10
58993;DHT22;44782;0.000;0.000;2022-11-20T15:21:00;19.70;58.10
58993;DHT22;44782;0.000;0.000;2022-11-20T15:23:17;19.70;58.20
58993;DHT22;44782;0.000;0.000;2022-11-20T15:25:33;19.60;58.10
58993;DHT22;44782;0.000;0.000;2022-11-20T15:27:52;19.70;58.10
58993;DHT22;44782;0.000;0.000;2022-11-20T15:30:14;19.70;58.00
58993;DHT22;44782;0.000;0.000;2022-11-20T15:32:30;19.70;57.90
58993;DHT22;44782;0.000;0.000;2022-11-20T15:34:45;19.60;58.00
58993;DHT22;44782;0.000;0.000;2022-11-20T15:37:01;19.60;57.90
58993;DHT22;44782;0.000;0.000;2022-11-20T15:39:16;19.70;58.00
58993;DHT22;44782;0.000;0.000;2022-11-20T15:41:34;19.60;57.80
58993;DHT22;44782;0.000;0.000;2022-11-20T15:43:50;19.70;57.80
58993;DHT22;44782;0.000;0.000;2022-11-20T15:46:10;19.70;57.80
58993;DHT22;44782;0.000;0.000;2022-11-20T15:48:32;19.70;57.70
58993;DHT22;44782;0.000;0.000;2022-11-20T15:51:38;19.70;57.70
58993;DHT22;44782;0.000;0.000;2022-11-20T15:53:28;19.70;57.60
58993;DHT22;44782;0.000;0.000;2022-11-20T15:55:44;19.70;57.70
58993;DHT22;44782;0.000;0.000;2022-11-20T15:57:59;19.60;57.60
58993;DHT22;44782;0.000;0.000;2022-11-20T16:00:15;19.70;57.70
58993;DHT22;44782;0.000;0.000;2022-11-20T16:02:31;19.70;57.70
58993;DHT22;44782;0.000;0.000;2022-11-20T16:04:47;19.70;57.60
58993;DHT22;44782;0.000;0.000;2022-11-20T16:07:02;19.60;57.50
58993;DHT22;44782;0.000;0.000;2022-11-20T16:09:18;19.70;57.50
58993;DHT22;44782;0.000;0.000;2022-11-20T16:11:34;19.60;57.50
58993;DHT22;44782;0.000;0.000;2022-11-20T16:13:53;19.70;57.50
58993;DHT22;44782;0.000;0.000;2022-11-20T16:16:29;19.70;57.40
58993;DHT22;44782;0.000;0.000;2022-11-20T16:18:46;19.70;57.40
58993;DHT22;44782;0.000;0.000;2022-11-20T16:21:02;19.70;57.40
58993;DHT22;44782;0.000;0.000;2022-11-20T16:23:18;19.70;57.30
58993;DHT22;44782;0.000;0.000;2022-11-20T16:25:33;19.70;57.30
58993;DHT22;44782;0.000;0.000;2022-11-20T16:27:49;19.70;57.20
58993;DHT22;44782;0.000;0.000;2022-11-20T16:30:05;19.70;57.20
58993;DHT22;44782;0.000;0.000;2022-11-20T16:32:22;19.80;57.20
58993;DHT22;44782;0.000;0.000;2022-11-20T16:34:37;19.70;57.10